Time;durP1;ratioP1;P1;durP2;ratioP2;P2;SDS_P1;SDS_P2;PMS_P1;PMS_P2;Temp;Humidity;BMP_temperature;BMP_pressure;BME280_temperature;BME280_humidity;BME280_pressure;Samples;Min_cycle;Max_cycle;Signal;HPM_P1;HPM_P2
2021/11/16 00:01:11;;;;;;;54.80;21.92;;;;;;;;;;5053235;28;20055;-55
2021/11/16 00:03:37;;;;;;;53.75;20.70;;;;;;;;;;5046950;28;20075;-55
2021/11/16 00:06:03;;;;;;;55.53;21.85;;;;;;;;;;5046208;28;20055;-52
2021/11/16 00:08:29;;;;;;;46.25;19.95;;;;;;;;;;5048365;28;20029;-53
2021/11/16 00:10:55;;;;;;;53.75;20.45;;;;;;;;;;5051272;28;20029;-53
2021/11/16 00:13:21;;;;;;;47.85;20.27;;;;;;;;;;5051842;28;20104;-53
2021/11/16 00:15:47;;;;;;;52.45;20.55;;;;;;;;;;5039122;28;20163;-52
2021/11/16 00:18:16;;;;;;;57.72;20.45;;;;;;;;;;5046286;28;20033;-55
2021/11/16 00:20:44;;;;;;;45.65;19.88;;;;;;;;;;5051166;28;20358;-54
2021/11/16 00:23:17;;;;;;;52.67;20.40;;;;;;;;;;5052129;28;21282;-54
2021/11/16 00:25:43;;;;;;;63.50;20.17;;;;;;;;;;5046783;28;20029;-53
2021/11/16 00:28:09;;;;;;;52.42;20.42;;;;;;;;;;5048835;28;20024;-52
2021/11/16 00:30:35;;;;;;;51.00;20.27;;;;;;;;;;5045440;28;20089;-55
2021/11/16 00:33:01;;;;;;;59.85;21.30;;;;;;;;;;5042767;28;20053;-54
2021/11/16 00:35:27;;;;;;;50.72;19.95;;;;;;;;;;5044532;28;20029;-52
2021/11/16 00:37:53;;;;;;;46.42;20.33;;;;;;;;;;5046335;28;20445;-52
2021/11/16 00:40:20;;;;;;;53.85;21.08;;;;;;;;;;5051924;28;20029;-53
2021/11/16 00:42:47;;;;;;;52.08;21.27;;;;;;;;;;5050326;28;20029;-56
2021/11/16 00:45:14;;;;;;;46.47;18.52;;;;;;;;;;5049523;28;20483;-56
2021/11/16 00:47:41;;;;;;;54.05;19.98;;;;;;;;;;5043991;28;20040;-56
2021/11/16 00:50:07;;;;;;;50.50;20.00;;;;;;;;;;5051442;28;20361;-58
2021/11/16 00:52:33;;;;;;;57.90;20.73;;;;;;;;;;5047341;28;20064;-55
2021/11/16 00:54:59;;;;;;;58.47;20.88;;;;;;;;;;5044454;28;20136;-53
2021/11/16 00:57:26;;;;;;;51.03;20.33;;;;;;;;;;5045538;28;20317;-56
2021/11/16 00:59:52;;;;;;;55.80;21.75;;;;;;;;;;5049247;28;20031;-56
2021/11/16 01:02:18;;;;;;;47.80;19.80;;;;;;;;;;5051422;28;20029;-56
2021/11/16 01:04:49;;;;;;;56.33;22.15;;;;;;;;;;5048608;28;20028;-58
2021/11/16 01:07:16;;;;;;;58.85;21.38;;;;;;;;;;5049323;28;20409;-56
2021/11/16 01:09:42;;;;;;;55.08;21.33;;;;;;;;;;5042609;28;20037;-52
2021/11/16 01:12:08;;;;;;;57.05;21.55;;;;;;;;;;5046716;28;20104;-55
2021/11/16 01:14:34;;;;;;;53.72;20.70;;;;;;;;;;5050492;28;20116;-52
2021/11/16 01:17:00;;;;;;;57.03;21.50;;;;;;;;;;5049108;28;20107;-55
2021/11/16 01:19:27;;;;;;;57.72;21.65;;;;;;;;;;5040782;28;20052;-54
2021/11/16 01:21:53;;;;;;;56.58;21.83;;;;;;;;;;5044736;28;20806;-54
2021/11/16 01:24:19;;;;;;;65.82;22.75;;;;;;;;;;5051262;28;20029;-53
2021/11/16 01:26:46;;;;;;;65.88;23.02;;;;;;;;;;5044693;28;20041;-56
2021/11/16 01:29:13;;;;;;;61.55;22.48;;;;;;;;;;5047948;28;20112;-56
2021/11/16 01:31:39;;;;;;;54.60;20.85;;;;;;;;;;5048437;28;20029;-55
2021/11/16 01:34:07;;;;;;;54.85;21.25;;;;;;;;;;5046682;28;20477;-55
2021/11/16 01:36:33;;;;;;;59.40;22.63;;;;;;;;;;5047581;28;20035;-56
2021/11/16 01:39:00;;;;;;;58.85;22.17;;;;;;;;;;5050315;28;20033;-55
2021/11/16 01:41:27;;;;;;;55.80;21.85;;;;;;;;;;5051305;28;20044;-54
2021/11/16 01:43:53;;;;;;;54.75;22.13;;;;;;;;;;5050909;28;20048;-53
2021/11/16 01:46:20;;;;;;;57.92;21.73;;;;;;;;;;5051831;28;20025;-55
2021/11/16 01:48:49;;;;;;;54.33;20.77;;;;;;;;;;5050452;28;20032;-58
2021/11/16 01:51:16;;;;;;;58.08;22.13;;;;;;;;;;5035132;28;20014;-58
2021/11/16 01:53:42;;;;;;;55.33;22.02;;;;;;;;;;5050509;28;20423;-58
2021/11/16 01:56:09;;;;;;;59.88;23.10;;;;;;;;;;5055464;28;20392;-57
2021/11/16 01:58:35;;;;;;;61.63;21.90;;;;;;;;;;5054520;28;20067;-55
2021/11/16 02:01:03;;;;;;;54.63;21.75;;;;;;;;;;5055068;28;20024;-55
2021/11/16 02:03:29;;;;;;;55.45;21.77;;;;;;;;;;5054372;28;20403;-58
2021/11/16 02:05:57;;;;;;;56.40;22.75;;;;;;;;;;5050456;28;20528;-53
2021/11/16 02:08:24;;;;;;;62.13;21.73;;;;;;;;;;5053497;28;20032;-55
2021/11/16 02:10:52;;;;;;;56.33;22.77;;;;;;;;;;5049808;28;20035;-55
2021/11/16 02:13:22;;;;;;;63.65;22.58;;;;;;;;;;5054536;28;20112;-53
2021/11/16 02:15:49;;;;;;;51.13;21.80;;;;;;;;;;5052799;28;20029;-56
2021/11/16 02:18:15;;;;;;;54.55;21.55;;;;;;;;;;5049548;28;20059;-54
2021/11/16 02:20:42;;;;;;;58.60;22.42;;;;;;;;;;5049864;28;20033;-54
2021/11/16 02:23:09;;;;;;;54.53;22.27;;;;;;;;;;5053048;28;20103;-52
2021/11/16 02:25:35;;;;;;;53.17;20.83;;;;;;;;;;5053379;28;20096;-56
2021/11/16 02:28:02;;;;;;;54.40;22.20;;;;;;;;;;5051446;28;20155;-56
2021/11/16 02:30:28;;;;;;;56.95;21.63;;;;;;;;;;5052461;28;20036;-52
2021/11/16 02:32:55;;;;;;;60.90;22.60;;;;;;;;;;5051366;28;20049;-52
2021/11/16 02:35:22;;;;;;;55.17;22.20;;;;;;;;;;5044589;28;20025;-52
2021/11/16 02:37:49;;;;;;;54.25;22.63;;;;;;;;;;5048069;28;20396;-53
2021/11/16 02:40:16;;;;;;;54.30;21.73;;;;;;;;;;5052454;28;20024;-54
2021/11/16 02:42:42;;;;;;;52.83;21.45;;;;;;;;;;5047724;28;20025;-54
2021/11/16 02:45:09;;;;;;;58.28;22.05;;;;;;;;;;5054228;28;20033;-53
2021/11/16 02:47:35;;;;;;;56.45;22.83;;;;;;;;;;5042183;28;20483;-54
2021/11/16 02:50:01;;;;;;;60.72;23.88;;;;;;;;;;5042580;28;20457;-53
2021/11/16 02:52:27;;;;;;;65.40;24.48;;;;;;;;;;5051023;28;20033;-56
2021/11/16 02:54:54;;;;;;;60.33;24.05;;;;;;;;;;5051266;28;20064;-57
2021/11/16 02:57:20;;;;;;;55.45;22.67;;;;;;;;;;5052611;28;20059;-57
2021/11/16 02:59:47;;;;;;;65.18;22.95;;;;;;;;;;5054573;28;20024;-58
2021/11/16 03:02:13;;;;;;;64.95;24.40;;;;;;;;;;5048878;28;20516;-57
2021/11/16 03:04:44;;;;;;;54.30;22.23;;;;;;;;;;5055116;28;20073;-56
2021/11/16 03:07:11;;;;;;;57.00;22.27;;;;;;;;;;5049619;28;20044;-55
2021/11/16 03:09:38;;;;;;;59.03;23.38;;;;;;;;;;5053320;28;20033;-56
2021/11/16 03:12:04;;;;;;;64.05;24.42;;;;;;;;;;5051092;28;20033;-55
2021/11/16 03:14:31;;;;;;;57.75;22.73;;;;;;;;;;5056807;28;20036;-57
2021/11/16 03:16:57;;;;;;;57.97;22.00;;;;;;;;;;5053279;28;20037;-56
2021/11/16 03:19:23;;;;;;;60.45;23.85;;;;;;;;;;5054725;28;20026;-55
2021/11/16 03:21:57;;;;;;;55.80;23.17;;;;;;;;;;5054006;28;20108;-56
2021/11/16 03:24:24;;;;;;;60.63;23.75;;;;;;;;;;5058000;28;20473;-55
2021/11/16 03:26:51;;;;;;;59.88;24.15;;;;;;;;;;5053532;28;20519;-54
2021/11/16 03:29:19;;;;;;;58.30;23.63;;;;;;;;;;5054316;28;20033;-53
2021/11/16 03:31:50;;;;;;;60.35;23.42;;;;;;;;;;5049850;28;20067;-54
2021/11/16 03:34:16;;;;;;;57.38;22.17;;;;;;;;;;5062348;28;20142;-53
2021/11/16 03:36:43;;;;;;;59.05;23.63;;;;;;;;;;5048469;28;20465;-54
2021/11/16 03:39:09;;;;;;;54.00;22.90;;;;;;;;;;5062012;28;20480;-56
2021/11/16 03:41:36;;;;;;;59.22;23.38;;;;;;;;;;5058019;28;20032;-56
2021/11/16 03:44:02;;;;;;;63.42;24.77;;;;;;;;;;5067643;28;20020;-55
2021/11/16 03:46:28;;;;;;;58.50;22.05;;;;;;;;;;5062460;28;20027;-56
2021/11/16 03:48:54;;;;;;;54.65;23.42;;;;;;;;;;5058587;28;20040;-53
2021/11/16 03:51:20;;;;;;;55.85;22.42;;;;;;;;;;5055340;28;20048;-55
2021/11/16 03:53:47;;;;;;;52.88;20.80;;;;;;;;;;5052782;28;20035;-56
2021/11/16 03:56:13;;;;;;;60.25;22.50;;;;;;;;;;5053679;28;20025;-52
2021/11/16 03:58:40;;;;;;;56.65;22.25;;;;;;;;;;5046555;28;20037;-53
2021/11/16 04:01:07;;;;;;;58.03;23.65;;;;;;;;;;5053731;28;20070;-56
2021/11/16 04:03:37;;;;;;;64.07;24.17;;;;;;;;;;5054337;28;20029;-58
2021/11/16 04:06:04;;;;;;;59.08;23.23;;;;;;;;;;5054037;28;20078;-58
2021/11/16 04:08:30;;;;;;;57.58;21.42;;;;;;;;;;5040944;28;20529;-57
2021/11/16 04:10:56;;;;;;;60.28;24.20;;;;;;;;;;5046604;28;20139;-58
2021/11/16 04:13:22;;;;;;;52.00;21.85;;;;;;;;;;5055913;28;20029;-57
2021/11/16 04:15:49;;;;;;;55.67;21.70;;;;;;;;;;5057195;28;20099;-56
2021/11/16 04:18:16;;;;;;;59.22;21.83;;;;;;;;;;5045784;28;20047;-58
2021/11/16 04:20:44;;;;;;;59.10;22.00;;;;;;;;;;5045438;28;20043;-57
2021/11/16 04:23:11;;;;;;;58.03;21.40;;;;;;;;;;5051402;28;20516;-55
2021/11/16 04:25:38;;;;;;;55.10;22.70;;;;;;;;;;5056582;28;20025;-56
2021/11/16 04:28:06;;;;;;;58.60;21.67;;;;;;;;;;5055055;28;20310;-56
2021/11/16 04:30:32;;;;;;;64.13;22.98;;;;;;;;;;5058827;28;20033;-55
2021/11/16 04:32:59;;;;;;;63.40;23.33;;;;;;;;;;5047961;28;20044;-54
2021/11/16 04:35:25;;;;;;;57.58;22.75;;;;;;;;;;5054123;28;20035;-56
2021/11/16 04:37:52;;;;;;;53.50;21.73;;;;;;;;;;5061020;28;20116;-57
2021/11/16 04:40:22;;;;;;;56.00;21.88;;;;;;;;;;5053180;28;20026;-54
2021/11/16 04:42:48;;;;;;;54.92;22.13;;;;;;;;;;5047436;28;20079;-57
2021/11/16 04:45:20;;;;;;;59.35;22.85;;;;;;;;;;5056741;28;20033;-54
2021/11/16 04:47:53;;;;;;;64.20;23.33;;;;;;;;;;5049583;28;20393;-54
2021/11/16 04:50:47;;;;;;;52.17;21.70;;;;;;;;;;5054521;28;20040;-52
2021/11/16 04:53:50;;;;;;;59.55;23.33;;;;;;;;;;5045230;28;20104;-54
2021/11/16 05:04:12;;;;;;;54.00;22.75;;;;;;;;;;5057156;28;20576;-55
2021/11/16 05:06:38;;;;;;;58.58;23.88;;;;;;;;;;5049220;28;20025;-56
2021/11/16 05:09:05;;;;;;;61.05;22.65;;;;;;;;;;5066331;28;20131;-55
2021/11/16 05:11:31;;;;;;;61.47;22.05;;;;;;;;;;5051314;28;20028;-53
2021/11/16 05:13:57;;;;;;;51.92;20.83;;;;;;;;;;5046509;28;20737;-58
2021/11/16 05:16:23;;;;;;;54.03;20.73;;;;;;;;;;5051809;28;20101;-56
2021/11/16 05:18:49;;;;;;;61.40;22.20;;;;;;;;;;5049656;28;20032;-55
2021/11/16 05:21:16;;;;;;;61.28;23.52;;;;;;;;;;5046983;28;20021;-53
2021/11/16 05:23:49;;;;;;;56.42;21.80;;;;;;;;;;5048558;28;20033;-55
2021/11/16 05:26:15;;;;;;;;;;;;;;;;;;5051012;28;20017;-55
2021/11/16 05:28:41;;;;;;;55.05;21.08;;;;;;;;;;5056647;28;20383;-53
2021/11/16 05:31:07;;;;;;;54.83;20.25;;;;;;;;;;5049250;28;20115;-52
2021/11/16 05:33:33;;;;;;;61.53;21.35;;;;;;;;;;5057866;28;20127;-52
2021/11/16 05:35:59;;;;;;;56.63;22.92;;;;;;;;;;5053141;28;20476;-53
2021/11/16 05:38:27;;;;;;;57.40;21.63;;;;;;;;;;5050007;28;20079;-53
2021/11/16 05:40:52;;;;;;;57.60;21.60;;;;;;;;;;5051660;28;20037;-53
2021/11/16 05:43:19;;;;;;;56.78;21.42;;;;;;;;;;5053828;28;20078;-53
2021/11/16 05:45:45;;;;;;;58.30;21.77;;;;;;;;;;5058264;28;20021;-56
2021/11/16 05:48:12;;;;;;;56.95;22.05;;;;;;;;;;5054038;28;20111;-54
2021/11/16 05:50:38;;;;;;;58.95;21.58;;;;;;;;;;5048104;28;20036;-57
2021/11/16 05:53:04;;;;;;;64.53;24.08;;;;;;;;;;5053352;28;20116;-53
2021/11/16 05:55:31;;;;;;;58.28;21.55;;;;;;;;;;5053651;28;20032;-52
2021/11/16 05:57:57;;;;;;;65.78;22.23;;;;;;;;;;5051198;28;20032;-56
2021/11/16 06:00:23;;;;;;;56.15;22.25;;;;;;;;;;5054060;28;20076;-56
2021/11/16 06:02:49;;;;;;;60.10;20.98;;;;;;;;;;5053041;28;20086;-56
2021/11/16 06:05:15;;;;;;;57.00;22.00;;;;;;;;;;5051592;28;20485;-56
2021/11/16 06:07:41;;;;;;;55.63;21.50;;;;;;;;;;5052036;28;20047;-56
2021/11/16 06:10:08;;;;;;;52.08;21.63;;;;;;;;;;5046103;28;20072;-54
2021/11/16 06:12:34;;;;;;;60.95;22.55;;;;;;;;;;5046595;28;20430;-54
2021/11/16 06:15:00;;;;;;;57.72;21.15;;;;;;;;;;5041272;28;20025;-57
2021/11/16 06:17:26;;;;;;;57.20;20.92;;;;;;;;;;5049121;28;20401;-58
2021/11/16 06:19:53;;;;;;;55.88;21.33;;;;;;;;;;5050770;28;20033;-56
2021/11/16 06:22:18;;;;;;;49.38;19.80;;;;;;;;;;5042922;28;20028;-53
2021/11/16 06:24:44;;;;;;;57.92;21.15;;;;;;;;;;5052742;28;20017;-56
2021/11/16 06:27:10;;;;;;;63.60;21.90;;;;;;;;;;5043534;28;20064;-54
2021/11/16 06:29:36;;;;;;;65.80;22.13;;;;;;;;;;5047721;28;20484;-54
2021/11/16 06:32:04;;;;;;;66.32;21.85;;;;;;;;;;5049817;28;20044;-54
2021/11/16 06:34:30;;;;;;;60.92;21.58;;;;;;;;;;5047399;28;20540;-53
2021/11/16 06:36:56;;;;;;;52.28;20.42;;;;;;;;;;5046244;28;20029;-52
2021/11/16 06:39:23;;;;;;;53.40;21.73;;;;;;;;;;5047298;28;20477;-54
2021/11/16 06:41:49;;;;;;;59.15;21.45;;;;;;;;;;5050958;28;20112;-51
2021/11/16 06:44:17;;;;;;;53.13;20.45;;;;;;;;;;5053632;28;20370;-53
2021/11/16 06:46:43;;;;;;;55.25;19.65;;;;;;;;;;5047899;28;20035;-54
2021/11/16 06:49:10;;;;;;;53.63;20.00;;;;;;;;;;5050803;28;20417;-54
2021/11/16 06:51:37;;;;;;;56.80;20.75;;;;;;;;;;5051665;28;20029;-54
2021/11/16 06:54:15;;;;;;;51.58;19.88;;;;;;;;;;5052636;28;20017;-55
2021/11/16 06:56:41;;;;;;;50.88;20.25;;;;;;;;;;5052399;28;20025;-56
2021/11/16 06:59:08;;;;;;;63.65;22.75;;;;;;;;;;5047205;28;20045;-58
2021/11/16 07:01:37;;;;;;;52.40;20.40;;;;;;;;;;5053621;28;20033;-55
2021/11/16 07:04:08;;;;;;;51.33;20.15;;;;;;;;;;5052183;28;20028;-57
2021/11/16 07:06:34;;;;;;;53.00;21.38;;;;;;;;;;5045899;28;20445;-56
2021/11/16 07:09:01;;;;;;;43.05;18.80;;;;;;;;;;5052643;28;20037;-58
2021/11/16 07:11:27;;;;;;;47.47;19.95;;;;;;;;;;5052202;28;20029;-56
2021/11/16 07:14:08;;;;;;;59.45;21.95;;;;;;;;;;5049360;28;20032;-56
2021/11/16 07:16:38;;;;;;;53.13;19.65;;;;;;;;;;5050096;28;20112;-57
2021/11/16 07:19:08;;;;;;;50.13;20.02;;;;;;;;;;5048387;28;20475;-56
2021/11/16 07:21:45;;;;;;;45.72;19.35;;;;;;;;;;5046180;28;20024;-53
2021/11/16 07:24:12;;;;;;;53.08;20.55;;;;;;;;;;5051968;28;20453;-57
2021/11/16 07:26:41;;;;;;;52.92;20.00;;;;;;;;;;5044240;28;20026;-56
2021/11/16 07:29:08;;;;;;;52.28;19.30;;;;;;;;;;5041037;28;20033;-53
2021/11/16 07:31:37;;;;;;;55.38;21.45;;;;;;;;;;5046338;28;20025;-56
2021/11/16 07:34:18;;;;;;;51.80;19.95;;;;;;;;;;5041365;28;20048;-55
2021/11/16 07:36:57;;;;;;;53.60;20.33;;;;;;;;;;5045746;28;20044;-55
2021/11/16 07:39:23;;;;;;;54.35;19.25;;;;;;;;;;5044189;28;20029;-58
2021/11/16 07:41:50;;;;;;;53.53;20.55;;;;;;;;;;5037064;28;20037;-56
2021/11/16 07:44:16;;;;;;;53.13;19.30;;;;;;;;;;5050934;28;20014;-57
2021/11/16 07:46:53;;;;;;;54.75;20.98;;;;;;;;;;5047297;28;20722;-58
2021/11/16 07:49:19;;;;;;;61.97;26.55;;;;;;;;;;5051979;28;20122;-57
2021/11/16 07:51:45;;;;;;;58.25;22.63;;;;;;;;;;5042804;28;20386;-58
2021/11/16 07:54:11;;;;;;;53.20;21.08;;;;;;;;;;5043009;28;20021;-55
2021/11/16 07:56:37;;;;;;;56.10;21.33;;;;;;;;;;5045362;28;20476;-57
2021/11/16 07:59:09;;;;;;;47.40;20.30;;;;;;;;;;5052036;28;20033;-55
2021/11/16 08:04:27;;;;;;;50.65;20.90;;;;;;;;;;5043017;28;20039;-56
2021/11/16 08:07:00;;;;;;;63.53;21.95;;;;;;;;;;5048344;28;20029;-56
2021/11/16 08:09:37;;;;;;;46.65;18.98;;;;;;;;;;5051981;28;20049;-55
2021/11/16 08:14:48;;;;;;;49.40;20.27;;;;;;;;;;5042554;28;20047;-55
2021/11/16 08:17:14;;;;;;;48.80;18.10;;;;;;;;;;5044723;28;20037;-54
2021/11/16 08:19:41;;;;;;;48.25;19.42;;;;;;;;;;5048679;28;20036;-58
2021/11/16 08:22:09;;;;;;;48.67;19.85;;;;;;;;;;5051712;28;20104;-53
2021/11/16 08:24:36;;;;;;;52.35;19.75;;;;;;;;;;5052301;28;20096;-54
2021/11/16 08:27:03;;;;;;;48.53;19.17;;;;;;;;;;5041230;28;20026;-54
2021/11/16 08:29:33;;;;;;;52.85;19.00;;;;;;;;;;5045678;28;20052;-51
2021/11/16 08:32:08;;;;;;;55.15;20.42;;;;;;;;;;5049548;28;20055;-52
2021/11/16 08:34:35;;;;;;;50.15;19.25;;;;;;;;;;5051224;28;20036;-54
2021/11/16 08:37:03;;;;;;;47.20;17.83;;;;;;;;;;5050673;28;20036;-58
2021/11/16 08:39:36;;;;;;;50.97;18.30;;;;;;;;;;5051671;28;20087;-54
2021/11/16 08:42:08;;;;;;;48.08;18.40;;;;;;;;;;5052530;28;20072;-54
2021/11/16 08:44:46;;;;;;;47.33;17.67;;;;;;;;;;5036274;28;20021;-57
2021/11/16 08:47:12;;;;;;;53.70;19.60;;;;;;;;;;5049568;28;20438;-57
2021/11/16 08:49:40;;;;;;;44.50;18.67;;;;;;;;;;5051740;28;20029;-53
2021/11/16 08:52:15;;;;;;;49.00;17.75;;;;;;;;;;5041850;28;20120;-55
2021/11/16 08:54:41;;;;;;;53.67;18.98;;;;;;;;;;5051030;28;20052;-53
2021/11/16 08:57:18;;;;;;;49.92;19.88;;;;;;;;;;5051767;28;20146;-56
2021/11/16 08:59:44;;;;;;;47.40;17.85;;;;;;;;;;5051329;28;20017;-56
2021/11/16 09:02:10;;;;;;;55.30;18.92;;;;;;;;;;5051190;28;20047;-55
2021/11/16 09:04:40;;;;;;;52.65;18.35;;;;;;;;;;5052480;28;20582;-53
2021/11/16 09:07:17;;;;;;;46.22;19.17;;;;;;;;;;5051696;28;20411;-53
2021/11/16 09:09:57;;;;;;;50.10;18.25;;;;;;;;;;5051495;28;20033;-56
2021/11/16 09:12:32;;;;;;;47.17;18.33;;;;;;;;;;5047940;28;20060;-53
2021/11/16 09:15:01;;;;;;;55.08;19.85;;;;;;;;;;5051064;28;20035;-56
2021/11/16 09:17:27;;;;;;;48.97;17.92;;;;;;;;;;5059067;28;20028;-54
2021/11/16 09:19:53;;;;;;;55.60;19.20;;;;;;;;;;5048424;28;20021;-54
2021/11/16 09:22:19;;;;;;;52.97;19.23;;;;;;;;;;5054831;28;20025;-56
2021/11/16 09:24:49;;;;;;;47.22;17.23;;;;;;;;;;5046692;28;20053;-56
2021/11/16 09:27:35;;;;;;;55.17;20.33;;;;;;;;;;5056510;28;20067;-53
2021/11/16 09:30:01;;;;;;;48.25;19.02;;;;;;;;;;5050180;28;20075;-56
2021/11/16 09:32:29;;;;;;;43.03;17.60;;;;;;;;;;5051709;28;20169;-54
2021/11/16 09:34:57;;;;;;;51.25;19.85;;;;;;;;;;5051669;28;20040;-53
2021/11/16 09:37:24;;;;;;;47.30;18.90;;;;;;;;;;5051153;28;20037;-55
2021/11/16 09:40:03;;;;;;;51.80;19.13;;;;;;;;;;5051421;28;20064;-53
2021/11/16 09:42:31;;;;;;;45.05;16.70;;;;;;;;;;5051783;28;20445;-54
2021/11/16 09:45:03;;;;;;;50.17;19.10;;;;;;;;;;5046939;28;20029;-56
2021/11/16 09:47:30;;;;;;;51.65;19.23;;;;;;;;;;5051806;28;20550;-54
2021/11/16 09:50:16;;;;;;;46.42;17.77;;;;;;;;;;5051201;28;20033;-55
2021/11/16 09:52:47;;;;;;;50.60;18.52;;;;;;;;;;5049520;28;20053;-52
2021/11/16 09:55:20;;;;;;;51.33;19.88;;;;;;;;;;5051381;28;20548;-55
2021/11/16 09:57:50;;;;;;;51.90;19.35;;;;;;;;;;5050822;28;20578;-54
2021/11/16 10:00:19;;;;;;;49.13;20.02;;;;;;;;;;5051309;28;20108;-57
2021/11/16 10:02:47;;;;;;;45.75;17.85;;;;;;;;;;5051670;28;20033;-52
2021/11/16 10:05:19;;;;;;;46.38;17.98;;;;;;;;;;5051307;28;20393;-55
2021/11/16 10:07:45;;;;;;;44.55;18.52;;;;;;;;;;5051214;28;20029;-54
2021/11/16 10:10:12;;;;;;;48.28;18.13;;;;;;;;;;5051054;28;20063;-54
2021/11/16 10:12:46;;;;;;;52.25;19.17;;;;;;;;;;5048616;28;20445;-56
2021/11/16 10:15:13;;;;;;;48.22;19.38;;;;;;;;;;5053038;28;20029;-55
2021/11/16 10:17:43;;;;;;;51.97;17.95;;;;;;;;;;5059678;28;20082;-52
2021/11/16 10:20:11;;;;;;;44.25;17.67;;;;;;;;;;5058427;28;20470;-55
2021/11/16 10:22:38;;;;;;;45.38;17.10;;;;;;;;;;5062994;28;20077;-53
2021/11/16 10:25:14;;;;;;;43.83;17.08;;;;;;;;;;5052151;28;20104;-55
2021/11/16 10:27:41;;;;;;;42.85;18.70;;;;;;;;;;5055963;28;20024;-55
2021/11/16 10:30:13;;;;;;;46.40;18.42;;;;;;;;;;5056962;28;20055;-52
2021/11/16 10:32:40;;;;;;;45.45;17.88;;;;;;;;;;5053376;28;20128;-55
2021/11/16 10:35:11;;;;;;;51.13;17.50;;;;;;;;;;5054304;28;20108;-58
2021/11/16 10:37:51;;;;;;;48.75;19.23;;;;;;;;;;5054075;28;20039;-56
2021/11/16 10:40:19;;;;;;;43.28;17.52;;;;;;;;;;5054889;28;20029;-55
2021/11/16 10:42:46;;;;;;;45.45;16.27;;;;;;;;;;5054671;28;20021;-58
2021/11/16 10:45:16;;;;;;;42.00;17.25;;;;;;;;;;5054193;28;20533;-57
2021/11/16 10:47:44;;;;;;;42.72;16.00;;;;;;;;;;5051610;28;20033;-58
2021/11/16 10:50:11;;;;;;;46.17;18.50;;;;;;;;;;5054501;28;20677;-54
2021/11/16 10:52:38;;;;;;;41.25;16.88;;;;;;;;;;5045135;28;20491;-56
2021/11/16 10:55:05;;;;;;;43.10;18.00;;;;;;;;;;5054158;28;20079;-55
2021/11/16 10:57:50;;;;;;;42.60;16.77;;;;;;;;;;5054316;28;20465;-58
2021/11/16 11:00:16;;;;;;;43.00;17.90;;;;;;;;;;5054080;28;20025;-54
2021/11/16 11:02:42;;;;;;;44.58;17.15;;;;;;;;;;5054314;28;20067;-55
2021/11/16 11:05:08;;;;;;;46.42;18.05;;;;;;;;;;5053953;28;20025;-58
2021/11/16 11:07:43;;;;;;;43.58;17.35;;;;;;;;;;5054043;28;20033;-57
2021/11/16 11:10:08;;;;;;;42.65;16.80;;;;;;;;;;5054036;28;20123;-54
2021/11/16 11:12:36;;;;;;;43.42;16.77;;;;;;;;;;5053603;28;20112;-55
2021/11/16 11:15:02;;;;;;;41.28;17.08;;;;;;;;;;5045688;28;20469;-52
2021/11/16 11:17:33;;;;;;;45.70;17.98;;;;;;;;;;5051287;28;20135;-54
2021/11/16 11:20:06;;;;;;;42.00;16.48;;;;;;;;;;5046554;28;20052;-56
2021/11/16 11:22:40;;;;;;;40.42;16.17;;;;;;;;;;5051064;28;20469;-58
2021/11/16 11:25:23;;;;;;;42.55;16.80;;;;;;;;;;5042316;28;20021;-55
2021/11/16 11:27:57;;;;;;;;;;;;;;;;;;5052869;28;20170;-58
2021/11/16 11:30:23;;;;;;;44.92;16.90;;;;;;;;;;5044279;28;19905;-58
2021/11/16 11:32:50;;;;;;;44.88;17.67;;;;;;;;;;5053485;28;20469;-54
2021/11/16 11:35:18;;;;;;;41.58;16.30;;;;;;;;;;5053573;28;20036;-58
2021/11/16 11:37:49;;;;;;;41.47;16.45;;;;;;;;;;5053316;28;20033;-52
2021/11/16 11:40:20;;;;;;;40.05;16.02;;;;;;;;;;5053461;28;20049;-58
2021/11/16 11:42:50;;;;;;;48.65;18.77;;;;;;;;;;5053319;28;20025;-57
2021/11/16 11:45:23;;;;;;;39.47;15.88;;;;;;;;;;5053159;28;20454;-54
2021/11/16 11:47:53;;;;;;;44.50;16.98;;;;;;;;;;5053024;28;20033;-55
2021/11/16 11:50:22;;;;;;;41.22;16.13;;;;;;;;;;5053117;28;20036;-58
2021/11/16 11:52:48;;;;;;;43.72;17.08;;;;;;;;;;5048765;28;20060;-56
2021/11/16 11:55:15;;;;;;;43.97;16.38;;;;;;;;;;5053291;28;20055;-56
2021/11/16 11:57:41;;;;;;;38.45;16.80;;;;;;;;;;5052698;28;20460;-52
2021/11/16 12:00:07;;;;;;;45.42;16.77;;;;;;;;;;5052889;28;20544;-53
2021/11/16 12:02:33;;;;;;;43.17;16.77;;;;;;;;;;5052620;28;20027;-54
2021/11/16 12:05:00;;;;;;;41.55;16.85;;;;;;;;;;5052985;28;20481;-52
2021/11/16 12:07:28;;;;;;;44.80;16.98;;;;;;;;;;5053189;28;20351;-54
2021/11/16 12:09:54;;;;;;;44.45;17.17;;;;;;;;;;5052830;28;20036;-54
2021/11/16 12:12:21;;;;;;;42.58;16.10;;;;;;;;;;5052615;28;20029;-52
2021/11/16 12:14:50;;;;;;;45.22;16.33;;;;;;;;;;5047135;28;20381;-53
2021/11/16 12:17:23;;;;;;;43.30;16.73;;;;;;;;;;5061244;28;20122;-55
2021/11/16 12:19:52;;;;;;;47.08;17.83;;;;;;;;;;5056906;28;20112;-54
2021/11/16 12:22:21;;;;;;;47.15;16.88;;;;;;;;;;5063274;28;20032;-52
2021/11/16 12:24:47;;;;;;;40.63;16.90;;;;;;;;;;5059647;28;20028;-52
2021/11/16 12:27:15;;;;;;;47.28;17.60;;;;;;;;;;5061542;28;20399;-55
2021/11/16 12:29:43;;;;;;;45.50;16.55;;;;;;;;;;5059917;28;20025;-55
2021/11/16 12:32:15;;;;;;;47.65;17.33;;;;;;;;;;5052813;28;20083;-55
2021/11/16 12:34:47;;;;;;;46.08;18.13;;;;;;;;;;5053348;28;20028;-56
2021/11/16 12:37:27;;;;;;;43.90;16.17;;;;;;;;;;5053406;28;20461;-56
2021/11/16 12:39:55;;;;;;;43.50;17.35;;;;;;;;;;5055383;28;20033;-53
2021/11/16 12:42:21;;;;;;;46.83;17.55;;;;;;;;;;5054805;28;20401;-53
2021/11/16 12:44:51;;;;;;;53.80;18.23;;;;;;;;;;5052377;28;20362;-56
2021/11/16 12:47:17;;;;;;;44.47;17.67;;;;;;;;;;5056108;28;20529;-56
2021/11/16 12:49:44;;;;;;;43.97;17.70;;;;;;;;;;5058287;28;20338;-57
2021/11/16 12:52:12;;;;;;;42.17;17.13;;;;;;;;;;5052808;28;20025;-56
2021/11/16 12:54:38;;;;;;;44.65;16.33;;;;;;;;;;5056777;28;20029;-55
2021/11/16 12:57:10;;;;;;;51.28;18.45;;;;;;;;;;5058284;28;20064;-57
2021/11/16 12:59:45;;;;;;;49.63;18.38;;;;;;;;;;5060656;28;20028;-57
2021/11/16 13:02:26;;;;;;;49.47;17.02;;;;;;;;;;5059734;28;20028;-58
2021/11/16 13:04:54;;;;;;;43.92;18.27;;;;;;;;;;5058554;28;20078;-58
2021/11/16 13:07:20;;;;;;;50.22;17.27;;;;;;;;;;5063458;28;20028;-55
2021/11/16 13:09:47;;;;;;;46.28;17.67;;;;;;;;;;5059629;28;20056;-53
2021/11/16 13:12:32;;;;;;;52.63;18.30;;;;;;;;;;5056892;28;20480;-57
2021/11/16 13:14:58;;;;;;;50.10;18.52;;;;;;;;;;5046952;28;20107;-58
2021/11/16 13:17:45;;;;;;;42.75;18.08;;;;;;;;;;5056207;28;20032;-56
2021/11/16 13:20:11;;;;;;;50.15;18.00;;;;;;;;;;5052616;28;20135;-58
2021/11/16 13:22:48;;;;;;;42.13;15.85;;;;;;;;;;5055423;28;20120;-54
2021/11/16 13:25:33;;;;;;;42.55;16.45;;;;;;;;;;5046549;28;20032;-56
2021/11/16 13:28:00;;;;;;;49.10;17.85;;;;;;;;;;5055851;28;20029;-58
2021/11/16 13:30:26;;;;;;;50.83;18.00;;;;;;;;;;5055323;28;20090;-57
2021/11/16 13:32:52;;;;;;;46.63;16.55;;;;;;;;;;5052370;28;20044;-54
2021/11/16 13:35:18;;;;;;;40.08;15.80;;;;;;;;;;5052499;28;20063;-57
2021/11/16 13:37:51;;;;;;;47.10;17.65;;;;;;;;;;5053463;28;20116;-56
2021/11/16 13:40:22;;;;;;;38.13;15.60;;;;;;;;;;5053625;28;20036;-57
2021/11/16 13:42:50;;;;;;;43.35;17.52;;;;;;;;;;5054122;28;20048;-54
2021/11/16 13:45:16;;;;;;;50.03;18.50;;;;;;;;;;5046287;28;20068;-58
2021/11/16 13:47:46;;;;;;;44.38;16.63;;;;;;;;;;5055343;28;20077;-55
2021/11/16 13:50:28;;;;;;;41.28;15.60;;;;;;;;;;5060460;28;20649;-55
2021/11/16 13:53:00;;;;;;;44.55;16.00;;;;;;;;;;5059297;28;20108;-54
2021/11/16 13:55:28;;;;;;;45.55;17.02;;;;;;;;;;5060816;28;20043;-57
2021/11/16 13:57:56;;;;;;;46.10;17.90;;;;;;;;;;5059910;28;20057;-55
2021/11/16 14:00:24;;;;;;;42.00;16.13;;;;;;;;;;5052125;28;20040;-55
2021/11/16 14:02:54;;;;;;;42.85;16.48;;;;;;;;;;5057422;28;20025;-54
2021/11/16 14:05:22;;;;;;;48.20;17.10;;;;;;;;;;5055888;28;20029;-54
2021/11/16 14:07:55;;;;;;;41.60;16.52;;;;;;;;;;5060802;28;20037;-56
2021/11/16 14:10:21;;;;;;;;;;;;;;;;;;5047509;28;20075;-53
2021/11/16 14:12:49;;;;;;;40.80;16.02;;;;;;;;;;5054186;28;19912;-51
2021/11/16 14:15:19;;;;;;;39.83;14.70;;;;;;;;;;5048164;28;20036;-55
2021/11/16 14:17:57;;;;;;;39.92;16.77;;;;;;;;;;5047309;28;20441;-58
2021/11/16 14:20:23;;;;;;;46.72;17.17;;;;;;;;;;5056031;28;20032;-55
2021/11/16 14:22:49;;;;;;;45.55;17.60;;;;;;;;;;5054608;28;20049;-55
2021/11/16 14:25:17;;;;;;;35.50;15.00;;;;;;;;;;5049679;28;20474;-54
2021/11/16 14:27:44;;;;;;;48.63;17.92;;;;;;;;;;5045988;28;20431;-58
2021/11/16 14:30:12;;;;;;;44.70;16.63;;;;;;;;;;5055650;28;20029;-56
2021/11/16 14:32:38;;;;;;;49.17;16.67;;;;;;;;;;5064526;28;20044;-53
2021/11/16 14:35:18;;;;;;;44.28;16.88;;;;;;;;;;5056375;28;20037;-54
2021/11/16 14:37:54;;;;;;;46.55;17.00;;;;;;;;;;5050167;28;20033;-53
2021/11/16 14:40:22;;;;;;;42.40;16.75;;;;;;;;;;5056064;28;20067;-52